Time;durP1;ratioP1;P1;durP2;ratioP2;P2;SDS_P1;SDS_P2;PMS_P1;PMS_P2;Temp;Humidity;BMP_temperature;BMP_pressure;BME280_temperature;BME280_humidity;BME280_pressure;Samples;Min_cycle;Max_cycle;Signal;HPM_P1;HPM_P2
2022/11/29 00:01:28;;;;;;;9.43;5.70;;;7.10;99.90;;;7.81;100.00;97870.63;4988249;28;20487;-78
2022/11/29 00:03:58;;;;;;;9.63;6.47;;;7.10;99.90;;;7.82;100.00;97869.66;4985782;28;20496;-78
2022/11/29 00:06:30;;;;;;;8.40;5.43;;;7.10;99.90;;;7.82;100.00;97868.84;4985811;28;20463;-78
2022/11/29 00:09:05;;;;;;;9.93;4.90;;;7.10;99.90;;;7.81;100.00;97870.63;4994061;28;20581;-78
2022/11/29 00:14:25;;;;;;;8.13;5.57;;;7.10;99.90;;;7.84;100.00;97875.50;4995347;28;20661;-78
2022/11/29 00:16:57;;;;;;;10.33;6.23;;;7.10;99.90;;;7.87;100.00;97879.56;4992479;28;20530;-78
2022/11/29 00:19:27;;;;;;;8.57;5.63;;;7.10;99.90;;;7.87;100.00;97877.75;4994101;28;20474;-78
2022/11/29 00:21:56;;;;;;;7.30;5.73;;;7.10;99.90;;;7.88;100.00;97871.56;4993348;28;20989;-78
2022/11/29 00:24:27;;;;;;;9.20;6.30;;;7.10;99.90;;;7.87;100.00;97874.34;4991279;28;20574;-78
2022/11/29 00:26:56;;;;;;;11.43;6.23;;;7.10;99.90;;;7.88;100.00;97871.56;4990817;28;20550;-78
2022/11/29 00:29:25;;;;;;;7.07;5.67;;;7.10;99.90;;;7.89;100.00;97882.78;4992789;28;20472;-78
2022/11/29 00:31:55;;;;;;;10.47;5.80;;;7.10;99.90;;;7.89;100.00;97880.19;4988248;28;20472;-78
2022/11/29 00:34:24;;;;;;;8.27;5.73;;;7.10;99.90;;;7.91;100.00;97875.63;4991654;28;20466;-78
2022/11/29 00:36:53;;;;;;;6.77;5.07;;;7.20;99.90;;;7.92;100.00;97883.25;4989884;28;20492;-78
2022/11/29 00:39:22;;;;;;;9.10;5.77;;;7.20;99.90;;;7.94;100.00;97875.28;4990292;28;20502;-78
2022/11/29 00:41:54;;;;;;;7.53;5.87;;;7.20;99.90;;;7.94;100.00;97889.09;4992990;28;21004;-78
2022/11/29 00:44:23;;;;;;;12.20;5.87;;;7.20;99.90;;;7.93;100.00;97889.25;4992906;28;21009;-78
2022/11/29 00:46:52;;;;;;;10.60;6.00;;;7.30;99.90;;;7.94;100.00;97885.69;4987464;28;20478;-78
2022/11/29 00:49:21;;;;;;;9.10;6.00;;;7.30;99.90;;;7.92;100.00;97892.84;4995762;28;20507;-78
2022/11/29 00:51:52;;;;;;;9.27;5.70;;;7.20;99.90;;;7.90;100.00;97892.22;4990283;28;20970;-78
2022/11/29 00:54:21;;;;;;;7.87;5.93;;;7.20;99.90;;;7.88;100.00;97891.59;4989977;28;21241;-78
2022/11/29 00:56:53;;;;;;;9.80;5.80;;;7.20;99.90;;;7.88;100.00;97886.38;4989866;28;20526;-78
2022/11/29 00:59:23;;;;;;;9.77;5.63;;;7.10;99.90;;;7.89;100.00;97895.78;4991492;28;20466;-78
2022/11/29 01:01:52;;;;;;;8.27;5.30;;;7.10;99.90;;;7.89;100.00;97898.41;4990535;28;20471;-78
2022/11/29 01:04:22;;;;;;;7.73;5.40;;;7.10;99.90;;;7.89;100.00;97893.19;4988889;28;20509;-78
2022/11/29 01:06:52;;;;;;;6.90;5.23;;;7.10;99.90;;;7.88;100.00;97899.41;4994279;28;20464;-78
2022/11/29 01:09:21;;;;;;;8.57;5.60;;;7.10;99.90;;;7.90;100.00;97897.44;4993456;28;20551;-78
2022/11/29 01:11:53;;;;;;;7.70;5.13;;;7.20;99.90;;;7.89;100.00;97899.22;4992333;28;20478;-78
2022/11/29 01:14:23;;;;;;;8.33;5.57;;;7.10;99.90;;;7.89;100.00;97898.41;4993933;28;20499;-78
2022/11/29 01:16:52;;;;;;;8.37;5.13;;;7.20;99.90;;;7.89;100.00;97904.41;4988469;28;20511;-78
2022/11/29 01:19:21;;;;;;;8.67;5.63;;;7.20;99.90;;;7.90;100.00;97900.03;4992568;28;20480;-78
2022/11/29 01:21:50;;;;;;;9.23;5.60;;;7.20;99.90;;;7.91;100.00;97904.25;4990224;28;20558;-78
2022/11/29 01:24:21;;;;;;;10.33;4.97;;;7.20;99.90;;;7.89;100.00;97899.22;4992368;28;20468;-78
2022/11/29 01:26:52;;;;;;;8.13;5.57;;;7.20;99.90;;;7.90;100.00;97906.06;4991638;28;20468;-78
2022/11/29 01:29:21;;;;;;;10.43;6.00;;;7.20;99.90;;;7.90;100.00;97905.22;4988405;28;20518;-78
2022/11/29 01:31:52;;;;;;;9.60;5.10;;;7.20;99.90;;;7.92;100.00;97909.28;4991685;28;20521;-78
2022/11/29 01:34:21;;;;;;;6.33;5.10;;;7.20;99.90;;;7.92;100.00;97911.06;4994529;28;20463;-78
2022/11/29 01:36:50;;;;;;;7.23;5.20;;;7.20;99.90;;;7.90;100.00;97910.44;4992264;28;20503;-78
2022/11/29 01:39:20;;;;;;;7.17;5.17;;;7.30;99.90;;;7.89;100.00;97907.03;4993370;28;20817;-78
2022/11/29 01:41:49;;;;;;;6.47;5.37;;;7.20;99.90;;;7.87;100.00;97916.00;4991918;28;21039;-78
2022/11/29 01:45:21;;;;;;;9.33;5.40;;;7.20;99.90;;;7.86;100.00;97919.56;4992714;28;20818;-78
2022/11/29 01:47:56;;;;;;;5.47;4.50;;;7.10;99.90;;;7.88;100.00;97918.41;4957016;28;20461;-78
2022/11/29 01:50:27;;;;;;;7.27;5.20;;;7.20;99.90;;;7.90;100.00;97915.66;4956155;28;20556;-78
2022/11/29 01:52:57;;;;;;;8.50;5.40;;;7.30;99.90;;;7.91;100.00;97914.66;4974585;28;20460;-78
2022/11/29 01:55:26;;;;;;;8.60;5.10;;;7.30;99.90;;;7.91;100.00;97914.66;4990471;28;20472;-78
2022/11/29 01:57:55;;;;;;;6.03;4.63;;;7.30;99.90;;;7.88;100.00;97917.63;4991668;28;20540;-78
2022/11/29 02:00:28;;;;;;;6.50;5.07;;;7.20;99.90;;;7.87;100.00;97916.81;4988630;28;20554;-79
2022/11/29 02:03:09;;;;;;;7.47;4.90;;;7.20;99.90;;;7.86;100.00;97924.78;4989907;28;20558;-78
2022/11/29 02:05:43;;;;;;;7.60;5.50;;;7.10;99.90;;;7.81;100.00;97921.91;4988166;28;20593;-78
2022/11/29 02:08:16;;;;;;;7.13;5.17;;;7.10;99.90;;;7.81;100.00;97925.28;4992719;28;20491;-78
2022/11/29 02:11:08;;;;;;;7.03;5.43;;;7.00;99.90;;;7.83;100.00;97919.91;4992993;28;20470;-78
2022/11/29 02:13:48;;;;;;;6.40;4.87;;;7.10;99.90;;;7.82;100.00;97923.50;4985595;28;20526;-78
2022/11/29 02:16:33;;;;;;;9.20;5.63;;;7.10;99.90;;;7.81;100.00;97924.50;4989701;28;20554;-78
2022/11/29 02:19:21;;;;;;;6.37;5.27;;;7.00;99.90;;;7.80;100.00;97920.28;4987445;28;20463;-79
2022/11/29 02:21:59;;;;;;;5.60;4.23;;;7.00;99.90;;;7.80;100.00;97921.09;4992615;28;21254;-78
2022/11/29 02:25:10;;;;;;;6.13;4.60;;;7.00;99.90;;;7.83;100.00;97919.91;4988822;28;20471;-79
2022/11/29 02:28:54;;;;;;;5.83;4.53;;;7.10;99.90;;;7.85;100.00;97928.34;4988299;28;20928;-78
2022/11/29 02:32:29;;;;;;;10.13;5.53;;;7.10;99.90;;;7.85;100.00;97923.16;4992536;28;20521;-78
2022/11/29 02:35:23;;;;;;;12.40;4.40;;;7.10;99.90;;;7.82;100.00;97926.91;4992211;28;21001;-78
2022/11/29 02:38:21;;;;;;;7.40;4.93;;;7.10;99.90;;;7.78;100.00;97930.03;4993969;28;20470;-78
2022/11/29 02:41:26;;;;;;;11.87;5.67;;;7.00;99.90;;;7.78;100.00;97928.25;4987901;28;20522;-78
2022/11/29 02:44:56;;;;;;;15.33;5.70;;;7.10;99.90;;;7.80;100.00;97928.09;4989002;28;20758;-78
2022/11/29 02:48:00;;;;;;;9.10;5.30;;;7.00;99.90;;;7.79;100.00;97929.06;4991144;28;20830;-78
2022/11/29 02:50:43;;;;;;;9.83;6.00;;;7.00;99.90;;;7.79;100.00;97929.06;4991163;28;20955;-78
2022/11/29 02:53:23;;;;;;;7.43;5.40;;;7.10;99.90;;;7.79;100.00;97934.25;4990028;28;20549;-78
2022/11/29 02:56:04;;;;;;;9.43;5.83;;;7.10;99.90;;;7.79;100.00;97934.25;4990265;28;21483;-78
2022/11/29 02:58:45;;;;;;;8.67;5.90;;;7.10;99.90;;;7.77;100.00;97933.63;4988947;28;20472;-78
2022/11/29 03:01:24;;;;;;;13.80;5.30;;;7.10;99.90;;;7.76;100.00;97940.63;4990401;28;20486;-79
2022/11/29 03:04:04;;;;;;;13.00;5.97;;;7.00;99.90;;;7.78;100.00;97932.63;4989328;28;20467;-78
2022/11/29 03:06:47;;;;;;;7.97;6.03;;;7.00;99.90;;;7.78;100.00;97941.25;4989081;28;20491;-78
2022/11/29 03:09:28;;;;;;;9.13;5.93;;;7.00;99.90;;;7.77;100.00;97941.44;4988502;28;21386;-78
2022/11/29 03:12:16;;;;;;;11.50;5.97;;;7.00;99.90;;;7.78;100.00;97941.25;4990867;28;20520;-78
2022/11/29 03:14:57;;;;;;;9.10;5.50;;;7.10;99.90;;;7.79;100.00;97939.47;4991574;28;20492;-78
2022/11/29 03:17:45;;;;;;;10.80;6.27;;;7.10;99.90;;;7.80;100.00;97941.09;4993398;28;20532;-78
2022/11/29 03:20:35;;;;;;;10.40;5.60;;;7.10;99.90;;;7.78;100.00;97940.44;4992386;28;20473;-78
2022/11/29 03:23:27;;;;;;;15.23;5.73;;;7.10;99.90;;;7.80;100.00;97935.88;4991877;28;20550;-78
2022/11/29 03:26:07;;;;;;;7.30;5.40;;;7.10;99.90;;;7.81;100.00;97940.91;4993933;28;20479;-78
2022/11/29 03:28:43;;;;;;;7.33;5.50;;;7.20;99.90;;;7.80;100.00;97941.91;4994810;28;20502;-78
2022/11/29 03:31:24;;;;;;;8.77;6.10;;;7.10;99.90;;;7.79;100.00;97942.06;4994852;28;20570;-79
2022/11/29 03:34:13;;;;;;;8.63;5.87;;;7.10;99.90;;;7.79;100.00;97944.66;4992800;28;20466;-78
2022/11/29 03:36:53;;;;;;;8.80;5.87;;;7.00;99.90;;;7.79;100.00;97944.66;4991868;28;20471;-78
2022/11/29 03:39:37;;;;;;;8.43;5.70;;;7.10;99.90;;;7.79;100.00;97947.28;4993566;28;20467;-78
2022/11/29 03:42:16;;;;;;;11.17;5.50;;;7.10;99.90;;;7.79;100.00;97944.66;4991002;28;20499;-78
2022/11/29 03:44:56;;;;;;;8.90;5.23;;;7.10;99.90;;;7.79;100.00;97944.66;4995559;28;21028;-78
2022/11/29 03:47:35;;;;;;;13.27;6.40;;;7.00;99.90;;;7.76;100.00;97951.03;4996096;28;20494;-78
2022/11/29 03:50:14;;;;;;;8.73;5.77;;;7.00;99.90;;;7.75;100.00;97949.41;4993651;28;20498;-79
2022/11/29 03:52:52;;;;;;;10.93;5.30;;;7.10;99.90;;;7.76;100.00;97952.81;4993590;28;20470;-79
2022/11/29 03:55:47;;;;;;;11.67;5.50;;;7.10;99.90;;;7.76;100.00;97955.44;4992406;28;20467;-79
2022/11/29 03:58:52;;;;;;;7.00;5.20;;;7.00;99.90;;;7.77;100.00;97954.47;4991736;28;20907;-80
2022/11/29 04:02:13;;;;;;;9.80;5.83;;;7.10;99.90;;;7.78;100.00;97964.69;4991497;28;20470;-80
2022/11/29 04:05:23;;;;;;;8.23;5.80;;;7.10;99.90;;;7.76;100.00;97961.44;4989488;28;20466;-80
2022/11/29 04:08:09;;;;;;;9.80;5.50;;;7.10;99.90;;;7.75;100.00;97962.41;4994016;28;20546;-79
2022/11/29 04:11:22;;;;;;;8.73;5.30;;;7.10;99.90;;;7.74;100.00;97957.41;4993848;28;20501;-79
2022/11/29 04:14:31;;;;;;;7.60;5.20;;;7.00;99.90;;;7.74;100.00;97957.41;4986932;28;20506;-80
2022/11/29 04:17:43;;;;;;;7.83;5.77;;;7.00;99.90;;;7.74;100.00;97967.81;4990255;28;20507;-79
2022/11/29 04:20:44;;;;;;;10.87;5.37;;;7.00;99.90;;;7.74;100.00;97965.22;4993166;28;20472;-80
2022/11/29 04:23:58;;;;;;;13.47;5.90;;;7.00;99.90;;;7.76;100.00;97968.44;4984937;28;20596;-79
2022/11/29 04:27:09;;;;;;;5.97;4.33;;;7.10;99.90;;;7.73;100.00;97967.00;4988746;28;20471;-81
2022/11/29 04:30:18;;;;;;;6.70;4.90;;;7.10;99.90;;;7.72;100.00;97978.38;4982189;28;20534;-82
2022/11/29 04:33:30;;;;;;;9.57;5.10;;;7.00;99.90;;;7.73;100.00;97974.00;4995866;28;20467;-80
2022/11/29 04:36:47;;;;;;;16.53;4.90;;;7.10;99.90;;;7.72;100.00;97977.56;4995517;28;20598;-80
2022/11/29 04:39:43;;;;;;;8.37;5.83;;;7.10;99.90;;;7.70;100.00;97971.75;4992313;28;20533;-81
2022/11/29 04:43:09;;;;;;;15.17;5.07;;;7.00;99.90;;;7.70;100.00;97976.94;4996048;28;20468;-80
2022/11/29 04:46:39;;;;;;;11.00;5.03;;;7.10;99.90;;;7.68;100.00;97981.47;4995357;28;20467;-80
2022/11/29 04:49:48;;;;;;;10.17;5.20;;;7.00;99.90;;;7.66;100.00;97986.88;4992411;28;20471;-80
2022/11/29 04:53:06;;;;;;;7.00;4.33;;;6.90;99.90;;;7.66;100.00;97979.06;4990467;28;20470;-80
2022/11/29 04:55:49;;;;;;;5.30;4.20;;;6.90;99.90;;;7.66;100.00;97983.47;4982174;28;20483;-80
2022/11/29 04:58:34;;;;;;;7.17;5.07;;;6.90;99.90;;;7.66;100.00;97983.47;4991419;28;20503;-80
2022/11/29 05:04:11;;;;;;;6.07;4.40;;;6.90;99.90;;;7.68;100.00;97986.69;5061996;27;20591;-82
2022/11/29 05:06:59;;;;;;;11.13;5.67;;;7.00;99.90;;;7.66;100.00;97996.47;5061478;28;20468;-82
2022/11/29 05:09:47;;;;;;;6.63;4.80;;;6.90;99.90;;;7.65;100.00;97995.66;5060836;28;20501;-81
2022/11/29 05:12:28;;;;;;;6.70;4.93;;;7.00;99.90;;;7.64;100.00;98001.84;5061562;28;20958;-82
2022/11/29 05:15:44;;;;;;;6.83;3.97;;;6.90;99.90;;;7.63;100.00;98007.22;5062709;28;20506;-81
2022/11/29 05:18:32;;;;;;;6.20;4.17;;;6.90;99.90;;;7.64;100.00;98014.03;5060512;28;20460;-82
2022/11/29 05:21:14;;;;;;;8.80;4.63;;;6.90;99.90;;;7.62;100.00;98013.41;5061426;28;20464;-81
2022/11/29 05:24:04;;;;;;;7.17;4.70;;;6.90;99.90;;;7.62;100.00;98013.41;5062460;28;20511;-82
2022/11/29 05:26:49;;;;;;;7.80;3.90;;;6.90;99.90;;;7.61;100.00;98020.38;5060989;28;20460;-81
2022/11/29 05:29:30;;;;;;;6.40;4.17;;;6.90;99.90;;;7.59;100.00;98023.19;5061794;28;20464;-82
2022/11/29 05:32:38;;;;;;;6.50;4.10;;;6.80;99.90;;;7.60;100.00;98024.78;5061760;28;20464;-82
2022/11/29 05:35:49;;;;;;;6.37;4.73;;;6.90;99.90;;;7.63;100.00;98036.66;5062989;28;20462;-82
2022/11/29 05:39:01;;;;;;;8.37;4.70;;;6.90;99.90;;;7.62;100.00;98034.22;5061033;28;20539;-81
2022/11/29 05:41:55;;;;;;;6.30;4.30;;;6.90;99.90;;;7.62;100.00;98036.81;5060604;28;20827;-82
2022/11/29 05:44:37;;;;;;;6.47;4.37;;;6.90;99.90;;;7.62;100.00;98042.03;5062288;28;20475;-82
2022/11/29 05:47:09;;;;;;;6.23;4.47;;;6.80;99.90;;;7.57;100.00;98040.72;5060099;28;20454;-82
2022/11/29 05:49:52;;;;;;;12.87;5.70;;;6.80;99.90;;;7.56;100.00;98039.13;5059882;28;20535;-82
2022/11/29 05:52:32;;;;;;;8.27;4.30;;;6.80;99.90;;;7.57;100.00;98040.72;5062499;28;20539;-82
2022/11/29 05:55:22;;;;;;;8.30;4.50;;;6.90;99.90;;;7.55;100.00;98057.50;5064566;28;20456;-82
2022/11/29 05:57:59;;;;;;;7.07;4.83;;;6.90;99.90;;;7.55;100.00;98055.72;5062329;28;20979;-82
2022/11/29 06:00:35;;;;;;;5.77;4.20;;;6.80;99.90;;;7.56;100.00;98064.34;5058249;28;20460;-82
2022/11/29 06:03:19;;;;;;;4.30;3.83;;;6.80;99.90;;;7.56;100.00;98065.16;5057642;28;20492;-82
2022/11/29 06:05:56;;;;;;;8.87;4.80;;;6.80;99.90;;;7.57;100.00;98058.94;5056920;28;20465;-82
2022/11/29 06:08:37;;;;;;;9.80;4.60;;;7.00;99.90;;;7.58;100.00;98065.78;5056813;28;20492;-82
2022/11/29 06:11:21;;;;;;;7.03;4.40;;;7.00;99.90;;;7.59;100.00;98069.19;5057121;28;20544;-82
2022/11/29 06:14:04;;;;;;;7.70;4.17;;;7.00;99.90;;;7.58;100.00;98068.38;5050606;28;20485;-81
2022/11/29 06:17:01;;;;;;;6.23;3.77;;;6.90;99.90;;;7.57;100.00;98074.56;5043828;28;20554;-82
2022/11/29 06:20:11;;;;;;;7.20;3.80;;;6.80;99.90;;;7.57;100.00;98076.34;5042414;28;20497;-82
2022/11/29 06:23:04;;;;;;;7.30;3.93;;;6.80;99.90;;;7.57;100.00;98077.16;5043892;28;20923;-82
2022/11/29 06:25:57;;;;;;;6.50;3.87;;;6.90;99.90;;;7.60;100.00;98086.44;5042995;28;20474;-82
2022/11/29 06:28:50;;;;;;;6.77;4.70;;;6.90;99.90;;;7.55;100.00;98083.50;5043513;28;20481;-82
2022/11/29 06:31:27;;;;;;;9.43;4.60;;;6.80;99.90;;;7.56;100.00;98088.56;5042911;28;20474;-82
2022/11/29 06:34:06;;;;;;;8.07;4.23;;;6.80;99.90;;;7.59;100.00;98090.00;5042317;28;20456;-82
2022/11/29 06:36:44;;;;;;;7.27;4.23;;;6.80;99.90;;;7.56;100.00;98091.16;5043035;28;20457;-82
2022/11/29 06:39:14;;;;;;;6.67;4.70;;;6.80;99.90;;;7.54;100.00;98093.09;5044674;28;20472;-82
2022/11/29 06:41:45;;;;;;;7.20;4.97;;;6.80;99.90;;;7.55;100.00;98096.53;5042605;28;20476;-82
2022/11/29 06:44:18;;;;;;;7.33;3.77;;;6.80;99.90;;;7.55;100.00;98094.75;5043828;28;20503;-84
2022/11/29 06:46:56;;;;;;;11.03;4.90;;;6.80;99.90;;;7.58;100.00;98099.59;5045009;28;20458;-82
2022/11/29 06:49:30;;;;;;;9.70;4.80;;;7.00;99.90;;;7.57;100.00;98097.16;5045812;28;20470;-82
2022/11/29 06:52:18;;;;;;;9.90;4.47;;;6.90;99.90;;;7.57;100.00;98099.75;5045826;28;20458;-82
2022/11/29 06:55:10;;;;;;;8.03;4.23;;;7.00;99.90;;;7.56;100.00;98096.38;5047525;28;20497;-81
2022/11/29 06:58:27;;;;;;;17.70;5.23;;;7.00;99.90;;;7.55;100.00;98102.53;5048338;28;20482;-83
2022/11/29 07:01:22;;;;;;;10.57;6.27;;;7.00;99.90;;;7.51;100.00;98103.84;5047426;28;20502;-82
2022/11/29 07:04:26;;;;;;;9.97;5.57;;;7.00;99.90;;;7.51;100.00;98110.84;5048715;28;20508;-83
2022/11/29 07:06:57;;;;;;;13.20;6.07;;;6.90;99.90;;;7.54;100.00;98115.72;5044628;28;20527;-82
2022/11/29 07:09:33;;;;;;;11.37;6.03;;;7.00;99.90;;;7.50;100.00;98115.22;5047912;28;20462;-82
2022/11/29 07:12:05;;;;;;;9.83;5.87;;;6.90;99.90;;;7.54;100.00;98123.50;5049302;28;20461;-82
2022/11/29 07:14:36;;;;;;;13.10;7.40;;;7.00;99.90;;;7.55;100.00;98117.34;5048900;28;20496;-82
2022/11/29 07:17:21;;;;;;;11.83;6.17;;;7.00;99.90;;;7.54;100.00;98119.13;5049673;28;20501;-82
2022/11/29 07:20:03;;;;;;;13.23;6.03;;;7.00;99.90;;;7.51;100.00;98119.47;5047969;28;20544;-82
2022/11/29 07:22:50;;;;;;;17.73;5.47;;;6.90;99.90;;;7.52;100.00;98123.69;5047685;28;20548;-82
2022/11/29 07:25:37;;;;;;;11.10;6.10;;;6.90;99.90;;;7.53;100.00;98127.91;5047661;28;20532;-82
2022/11/29 07:28:28;;;;;;;7.60;4.87;;;6.90;99.90;;;7.54;100.00;98139.13;5046247;28;20488;-82
2022/11/29 07:31:08;;;;;;;10.53;6.07;;;6.90;99.90;;;7.56;100.00;98137.19;5045886;28;20461;-82
2022/11/29 07:33:56;;;;;;;14.57;4.70;;;6.90;99.90;;;7.58;100.00;98135.22;5046378;28;20506;-82
2022/11/29 07:36:42;;;;;;;6.07;4.57;;;6.90;99.90;;;7.59;100.00;98134.25;5048261;28;20495;-82
2022/11/29 07:39:25;;;;;;;7.33;5.00;;;7.00;99.90;;;7.60;100.00;98128.84;5045390;28;20453;-82
2022/11/29 07:42:08;;;;;;;5.60;3.93;;;7.00;99.90;;;7.62;100.00;98138.31;5047831;28;20515;-82
2022/11/29 07:44:52;;;;;;;5.77;3.83;;;7.00;99.90;;;7.63;100.00;98142.53;5048069;28;20489;-82
2022/11/29 07:47:22;;;;;;;7.80;4.37;;;6.90;99.90;;;7.63;100.00;98137.34;5048163;28;20464;-82
2022/11/29 07:49:52;;;;;;;7.67;4.63;;;6.90;99.90;;;7.62;100.00;98144.31;5049125;28;21005;-82
2022/11/29 07:52:22;;;;;;;6.80;4.57;;;6.90;99.90;;;7.63;100.00;98142.53;5043151;28;20466;-82
2022/11/29 07:54:52;;;;;;;15.17;4.80;;;6.90;99.90;;;7.64;100.00;98144.13;5041892;28;20509;-82
2022/11/29 07:57:21;;;;;;;9.23;4.37;;;6.90;99.90;;;7.65;100.00;98150.97;5042282;28;20542;-83
2022/11/29 07:59:51;;;;;;;9.03;4.67;;;6.90;99.90;;;7.64;100.00;98154.53;5042565;28;20469;-82
2022/11/29 08:02:28;;;;;;;7.83;4.90;;;7.00;99.90;;;7.65;100.00;98148.38;5041763;28;20551;-82
2022/11/29 08:05:00;;;;;;;9.10;5.23;;;6.90;99.90;;;7.65;100.00;98154.41;5040447;28;20899;-82
2022/11/29 08:07:33;;;;;;;9.57;5.20;;;6.90;99.90;;;7.68;100.00;98161.88;5042973;28;20453;-82
2022/11/29 08:10:04;;;;;;;10.73;5.17;;;6.90;99.90;;;7.70;100.00;98154.72;5043486;28;20468;-82
2022/11/29 08:12:33;;;;;;;10.63;5.87;;;7.00;99.90;;;7.70;100.00;98156.50;5046318;28;20514;-82
2022/11/29 08:15:02;;;;;;;8.70;5.87;;;6.90;99.90;;;7.71;100.00;98158.13;5048799;28;20472;-82
2022/11/29 08:17:31;;;;;;;9.47;5.03;;;7.00;99.90;;;7.70;100.00;98165.13;5047000;28;20501;-82
2022/11/29 08:20:02;;;;;;;12.30;5.67;;;7.00;99.90;;;7.72;100.00;98163.16;5044218;28;20510;-82
2022/11/29 08:22:32;;;;;;;9.73;5.50;;;7.00;99.90;;;7.74;100.00;98170.81;5046094;28;21058;-82
2022/11/29 08:25:01;;;;;;;9.07;5.70;;;7.00;99.90;;;7.78;100.00;98177.28;5047144;28;20495;-82
2022/11/29 08:27:31;;;;;;;11.20;5.47;;;7.00;99.90;;;7.80;100.00;98178.78;5046472;28;20892;-82
2022/11/29 08:30:00;;;;;;;9.07;5.33;;;7.10;99.90;;;7.82;100.00;98174.19;5047880;28;20465;-82
2022/11/29 08:32:30;;;;;;;8.03;5.50;;;7.10;99.90;;;7.83;100.00;98175.84;5047102;28;20539;-82
2022/11/29 08:35:02;;;;;;;13.40;5.80;;;7.10;99.90;;;7.84;100.00;98180.06;5047120;28;21751;-82
2022/11/29 08:37:32;;;;;;;10.20;5.70;;;7.10;99.90;;;7.83;100.00;98175.03;5046108;28;20473;-83
2022/11/29 08:40:03;;;;;;;8.60;5.73;;;7.10;99.90;;;7.83;100.00;98175.84;5046589;28;20588;-82
2022/11/29 08:42:34;;;;;;;15.77;5.87;;;7.10;99.90;;;7.84;100.00;98177.47;5047732;28;20461;-82
2022/11/29 08:45:05;;;;;;;10.67;5.73;;;7.10;99.90;;;7.86;100.00;98185.09;5046395;28;20547;-82
2022/11/29 08:47:37;;;;;;;15.97;5.37;;;7.10;99.90;;;7.89;100.00;98180.38;5042365;28;20455;-82
2022/11/29 08:50:13;;;;;;;10.30;5.40;;;7.20;99.90;;;7.91;100.00;98183.59;5043896;28;20465;-82
2022/11/29 08:55:35;;;;;;;7.00;5.50;;;7.30;99.90;;;7.96;100.00;98191.75;5041544;28;20557;-82
2022/11/29 08:58:07;;;;;;;11.70;5.70;;;7.30;99.90;;;7.96;100.00;98191.75;5045709;28;20458;-82
2022/11/29 09:00:39;;;;;;;13.13;5.17;;;7.30;99.90;;;7.99;100.00;98194.00;5042834;28;20915;-81
2022/11/29 09:05:59;;;;;;;6.87;5.10;;;7.30;99.90;;;8.02;100.00;98198.88;5045770;28;20465;-82
2022/11/29 09:08:29;;;;;;;13.30;6.03;;;7.30;99.90;;;8.04;100.00;98188.31;5048461;28;20464;-82
2022/11/29 09:10:58;;;;;;;13.90;6.63;;;7.30;99.90;;;8.06;100.00;98204.56;5045918;28;20465;-83
2022/11/29 09:13:27;;;;;;;10.23;6.10;;;7.40;99.90;;;8.08;100.00;98200.84;5047564;28;20955;-82
2022/11/29 09:15:57;;;;;;;16.97;6.63;;;7.40;99.90;;;8.12;100.00;98208.31;5039638;28;20497;-82
2022/11/29 09:18:27;;;;;;;15.10;7.73;;;7.50;99.90;;;8.14;100.00;98206.34;5047724;28;20461;-82
2022/11/29 09:20:58;;;;;;;13.17;6.47;;;7.50;99.90;;;8.17;100.00;98213.81;5044927;28;20484;-82
2022/11/29 09:23:28;;;;;;;12.33;7.27;;;7.60;99.90;;;8.18;100.00;98205.84;5047036;28;20568;-82
2022/11/29 09:25:57;;;;;;;14.40;7.60;;;7.60;99.90;;;8.21;100.00;98222.94;5046169;28;20496;-82
2022/11/29 09:28:27;;;;;;;28.50;13.40;;;7.60;99.90;;;8.22;100.00;98221.97;5047176;28;20499;-82
2022/11/29 09:31:04;;;;;;;15.40;8.90;;;7.60;99.90;;;8.23;100.00;98220.94;5045825;28;21001;-82
2022/11/29 09:33:34;;;;;;;17.27;9.50;;;7.60;99.90;;;8.25;100.00;98222.44;5046721;28;20904;-82
2022/11/29 09:36:08;;;;;;;11.73;7.77;;;7.60;99.90;;;8.27;100.00;98230.06;5047576;28;21040;-82
2022/11/29 09:38:37;;;;;;;13.00;6.50;;;7.60;99.90;;;8.27;100.00;98232.66;5045506;28;20463;-82
2022/11/29 09:41:27;;;;;;;7.80;5.23;;;7.60;99.90;;;8.29;100.00;98242.00;5045486;28;20552;-82
2022/11/29 09:44:15;;;;;;;14.60;8.10;;;7.60;99.90;;;8.31;100.00;98229.59;5043962;28;20461;-82
2022/11/29 09:46:57;;;;;;;13.80;8.70;;;7.60;99.90;;;8.34;100.00;98231.03;5043726;28;20457;-82
2022/11/29 09:49:52;;;;;;;15.67;9.13;;;7.70;99.90;;;8.36;100.00;98245.56;5044770;28;20987;-83
2022/11/29 09:52:43;;;;;;;15.83;7.30;;;7.70;99.90;;;8.38;100.00;98230.56;5048006;28;20464;-82
2022/11/29 09:56:00;;;;;;;13.77;8.10;;;7.80;99.90;;;8.42;100.00;98239.66;5046439;28;20567;-82
2022/11/29 09:58:42;;;;;;;15.53;7.33;;;7.80;99.90;;;8.41;100.00;98243.25;5050798;28;20549;-82
2022/11/29 10:01:22;;;;;;;14.23;6.53;;;7.80;99.90;;;8.47;100.00;98241.75;5049397;28;20982;-82
2022/11/29 10:03:58;;;;;;;18.10;7.20;;;7.90;99.90;;;8.47;100.00;98236.53;5048515;28;20468;-82
2022/11/29 10:06:33;;;;;;;14.80;6.80;;;7.90;99.90;;;8.49;100.00;98240.63;5050709;28;20529;-82
2022/11/29 10:09:13;;;;;;;10.90;6.50;;;8.00;99.90;;;8.52;100.00;98237.66;5048228;28;20496;-82
2022/11/29 10:12:06;;;;;;;12.20;6.03;;;8.00;99.90;;;8.57;100.00;98242.38;5044215;28;20457;-82
2022/11/29 10:14:45;;;;;;;16.20;6.63;;;8.10;99.90;;;8.62;100.00;98245.28;5043277;28;20558;-82
2022/11/29 10:17:30;;;;;;;10.87;5.97;;;8.10;99.90;;;8.58;100.00;98241.38;5043367;28;20462;-82
2022/11/29 10:20:10;;;;;;;10.80;6.00;;;8.10;99.90;;;8.63;100.00;98241.69;5043526;28;20469;-83
2022/11/29 10:22:52;;;;;;;13.90;5.80;;;8.20;99.90;;;8.66;100.00;98245.75;5044678;28;20545;-82
2022/11/29 10:25:28;;;;;;;19.20;6.10;;;8.10;99.90;;;8.67;100.00;98247.38;5043584;28;20979;-81
2022/11/29 10:27:58;;;;;;;8.43;6.30;;;8.20;99.90;;;8.70;100.00;98237.44;5043523;28;21406;-82
2022/11/29 10:30:28;;;;;;;14.40;6.70;;;8.30;99.90;;;8.71;100.00;98251.28;5044256;28;20461;-82
2022/11/29 10:33:01;;;;;;;11.77;7.00;;;8.20;99.90;;;8.70;100.00;98237.44;5043594;28;20489;-82
2022/11/29 10:35:31;;;;;;;14.70;6.60;;;8.20;99.90;;;8.72;100.00;98245.06;5043726;28;20497;-82
2022/11/29 10:38:05;;;;;;;15.13;5.63;;;8.20;99.90;;;8.74;100.00;98245.72;5042986;28;20544;-82
2022/11/29 10:41:04;;;;;;;191.90;17.83;;;8.20;99.90;;;8.78;100.00;98233.97;5042315;28;20465;-82
2022/11/29 10:43:36;;;;;;;13.53;6.60;;;8.30;99.90;;;8.77;100.00;98240.16;5042696;28;20967;-82
2022/11/29 10:46:13;;;;;;;9.03;5.83;;;8.30;99.90;;;8.80;100.00;98237.22;5043170;28;20501;-82
2022/11/29 10:48:43;;;;;;;14.43;6.27;;;8.40;99.90;;;8.78;100.00;98234.75;5042409;28;20477;-82
2022/11/29 10:51:18;;;;;;;12.03;5.80;;;8.40;99.90;;;8.78;100.00;98241.78;5042161;28;20508;-82
2022/11/29 10:53:49;;;;;;;9.17;5.57;;;8.30;99.90;;;8.78;100.00;98241.78;5043693;28;20473;-82
2022/11/29 10:56:28;;;;;;;21.67;6.80;;;8.30;99.90;;;8.78;100.00;98233.97;5043266;28;20542;-82
2022/11/29 10:59:04;;;;;;;8.70;5.23;;;8.20;99.90;;;8.81;100.00;98238.84;5043251;28;21043;-82
2022/11/29 11:01:41;;;;;;;13.27;5.80;;;8.30;99.90;;;8.83;100.00;98234.25;5040354;28;20458;-82
2022/11/29 11:04:24;;;;;;;10.20;5.30;;;8.30;99.90;;;8.83;100.00;98240.28;5042677;28;20510;-83
2022/11/29 11:06:59;;;;;;;8.93;4.63;;;8.30;99.90;;;8.81;100.00;98234.44;5042172;28;20543;-82
2022/11/29 11:09:35;;;;;;;10.37;5.80;;;8.30;99.90;;;8.82;100.00;98241.25;5042636;28;20551;-82
2022/11/29 11:12:20;;;;;;;12.03;4.90;;;8.30;99.90;;;8.83;100.00;98237.69;5043213;28;20469;-82
2022/11/29 11:14:50;;;;;;;10.13;4.63;;;8.20;99.90;;;8.85;100.00;98240.13;5041967;28;20976;-82
2022/11/29 11:17:25;;;;;;;8.07;4.17;;;8.30;99.90;;;8.86;100.00;98232.13;5042281;28;20470;-82
2022/11/29 11:19:59;;;;;;;8.70;5.23;;;8.40;99.90;;;8.90;100.00;98232.59;5043578;28;20510;-82
2022/11/29 11:22:31;;;;;;;11.37;5.00;;;8.40;99.90;;;8.94;100.00;98239.09;5044440;28;20548;-82
2022/11/29 11:25:05;;;;;;;11.60;6.43;;;8.40;99.90;;;8.95;100.00;98232.91;5046174;28;20492;-82
2022/11/29 11:27:39;;;;;;;10.03;5.40;;;8.40;99.90;;;8.99;100.00;98228.94;5043939;28;20537;-82
2022/11/29 11:30:22;;;;;;;16.80;6.00;;;8.40;99.90;;;9.00;100.00;98233.19;5044184;28;20450;-82
2022/11/29 11:33:17;;;;;;;10.80;4.80;;;8.50;99.90;;;9.02;100.00;98226.81;5042285;28;20472;-82
2022/11/29 11:36:05;;;;;;;10.93;4.60;;;8.50;99.90;;;9.06;100.00;98232.47;5044369;28;20469;-81